Olden, Texas
Current Conditions -  °F | °C
As of 2:15 PM on Monday 26 Jan 2015 (Local Time) from KBKD Reporting Station
Haze Haze  
Wind Chill: 74°   Ceiling: Unl
Heat Index: 74°   Visibility: 5mi
Dew Point: 32°   Wind: 9mph
Humidity: 21%   Direction: 280°W
Pressure: 30.15"   Gusts: NA
Location:  32.42°N, 98.75°W
Report Text: KBKD 262015Z AUTO 28008KT 5SM HZ CLR 24/00 A3015 RMK AO2 T02351002
Loading
Personal Weather Stations






























Interactive Weather Map New forecast layout! Learn more

10-Day Weather Forecast

Advertisements
Track Severe Weather on mobile